Terminal Aerodrome Forecast
Issued by NWS Grand Forks, ND

Home | Current Version | Previous Version | Text Only | Print | Product List | Glossary On
Versions: 1 2 3 4 5 6 7 8 9 10 11 12 13 14 15 16 17 18 19 20 21
000
FTUS43 KFGF 290500
TAFFAR
TAF
KFAR 290520Z 2906/3006 16011KT P6SM OVC015
      TEMPO 2906/2909 SCT015
     FM290900 18006KT 4SM BR OVC007
     FM291500 23004KT P6SM BKN015
     FM291800 34005KT P6SM BKN035
     FM300000 35011KT P6SM BKN050=

USA.gov is the U.S. government's official web portal to all federal, state and local government web resources and services.